• Join FlightAware (Why Join?)
  • Login
  • US Flag 
10:59AM EDT


 

Airport Tracker/Info


-or-


 

Live Flight TrackerFlight Track Log ✈ AAL9657 ✈ 03-May-2012 ✈ KLAX - KLAS

Flight Track Log - Related Links

Times and Time Zones

All times are in EDT time to prevent confusion due to time zone crossing. See the AAL9657 flight status page for this flight to view local times or setup timezone preferences in your user account.

Time Position Orientation Groundspeed Altitude Reporting Facility
EDT Latitude Longitude Course Direction KTS MPH feet Rate Location/Type
10:36AM 33.9053 -118.5239 212° Southwest 205 236 5,800  Level Los Angeles Center
10:37AM 33.8544 -118.5625 123° Southeast 238 274 9,200 3,240 Climbing Los Angeles Center
10:38AM 33.8103 -118.4811 58° Northeast 175 201 12,300 2,340 Climbing Los Angeles Center
10:39AM 33.8686 -118.3703 50° Northeast 183 211 13,900 2,280 Climbing Los Angeles Center
10:40AM 33.9478 -118.2572 54° Northeast 303 349 16,900 3,000 Climbing Los Angeles Center
10:41AM 34.0253 -118.1289 51° Northeast 405 466 19,900 2,700 Climbing Los Angeles Center
10:42AM 34.1044 -118.0103 52° Northeast 432 497 22,400 2,340 Climbing Los Angeles Center
10:43AM 34.1833 -117.8864 54° Northeast 448 516 24,600 1,740 Climbing Los Angeles Center
10:44AM 34.2583 -117.7625 52° Northeast 455 524 25,900 660 Climbing Los Angeles Center
10:45AM 34.3392 -117.6358 54° Northeast 460 529 26,000  Climbing Los Angeles Center
10:46AM 34.4158 -117.5086 52° Northeast 465 535 26,000  Level Los Angeles Center
10:47AM 34.4964 -117.3814 53° Northeast 465 535 26,000  Level Los Angeles Center
10:48AM 34.5769 -117.2514 53° Northeast 471 542 26,000 -300 Level Los Angeles Center
10:49AM 34.6553 -117.1264 53° Northeast 471 542 25,500 -780 Descending Los Angeles Center
10:50AM 34.7356 -116.9983 53° Northeast 471 542 24,500 -780 Descending Los Angeles Center
10:51AM 34.8075 -116.8803 52° Northeast 479 551 24,000 -300 Descending Los Angeles Center
10:52AM 34.8875 -116.7544 54° Northeast 474 545 24,000 -60 Level Los Angeles Center
10:53AM 34.9653 -116.6256 53° Northeast 474 545 23,900  Descending Los Angeles Center
10:54AM 35.0450 -116.4942 50° Northeast 474 545 24,000  Climbing Los Angeles Center
10:55AM 35.1308 -116.3703 46° Northeast 474 545 24,000 -1,020 Level Los Angeles Center
10:56AM 35.2208 -116.2561 47° Northeast 469 540 22,000 -2,640 Descending Los Angeles Center
10:57AM 35.3044 -116.1467 45° Northeast 452 520 18,800 -3,060 Descending Los Angeles Center
10:58AM 35.3900 -116.0422 45° Northeast 437 503 15,900 -2,640 Descending Los Angeles Center
10:59AM 35.4669 -115.9478 47° Northeast 411 473 13,600 -1,440 Descending Los Angeles Center
11:00AM 35.5400 -115.8508 47° Northeast 393 452 13,000 -360 Descending Los Angeles Center
11:01AM 35.6022 -115.7689 45° Northeast 376 433 13,000  Level Los Angeles Center
11:02AM 35.6667 -115.6892 44° Northeast 333 383 13,000  Level Los Angeles Center
11:03AM 35.7331 -115.6094 17° North 327 376 13,000 -120 Level Los Angeles Center
11:04AM 35.8289 -115.5731 North 324 373 12,800 -480 Descending Los Angeles Center
11:05AM 35.9186 -115.5700 37° Northeast 323 372 12,000 -780 Descending Los Angeles Center
11:06AM 35.9831 -115.5106 68° East 325 374 11,300 -540 Descending Los Angeles Center
11:07AM 36.0139 -115.4178 82° East 322 371 11,000 -600 Descending Los Angeles Center
11:08AM 36.0258 -115.3175 95° East 301 346 10,200 -1,140 Descending Los Angeles Center
11:09AM 36.0189 -115.2200 94° East 267 307 8,800 -1,080 Descending Los Angeles Center
11:10AM 36.0139 -115.1225 96° East 267 307 8,000 -720 Descending Los Angeles Center
11:11AM 36.0069 -115.0378 93° East 217 250 7,300 -780 Descending Los Angeles Center
11:12AM 36.0042 -114.9789 17° North 221 254 6,500 -1,500 Descending Los Angeles Center
11:13AM 36.0519 -114.9603 295° West 132 152 4,600 -1,380 Descending Los Angeles Center
11:14AM 36.0736 -115.0189 271° West 101 116 3,800 -900 Descending Los Angeles Center
11:15AM 36.0742 -115.0806 270° West 130 150 2,800 -960 Descending Los Angeles Center
11:16AM 36.0744 -115.1269 277° West 140 161 2,000 -360 Descending Los Angeles Center
11:17AM 36.0767 -115.1500 318° Northwest 121 139 2,100  Climbing Los Angeles Center
11:18AM 36.0789 -115.1525 94° East 56 64 2,100  Level Los Angeles Center
11:19AM 36.0786 -115.1475 114° Southeast 31 36 2,100 -60 Level Los Angeles Center
11:20AM 36.0767 -115.1422 114° Southeast 9 10 2,000 -120 Descending Los Angeles Center